Time,TemperatureF,DewpointF,PressureIn,WindDirection,WindDirectionDegrees,WindSpeedMPH,WindSpeedGustMPH,Humidity,HourlyPrecipIn,Conditions,Clouds,dailyrainin,SoftwareType,DateUTC
2013-12-04 00:04:00,44.4,22.3,28.82,SSE,153,3.0,4.7,42,-99.99,,,-99.99,WSDL version 426,2013-12-04 06:04:00,
2013-12-04 00:09:00,45.0,23.6,28.82,SSE,154,3.6,5.6,44,-99.99,,,-99.99,WSDL version 426,2013-12-04 06:09:00,
2013-12-04 00:14:00,45.4,25.2,28.82,SSE,163,2.8,5.6,45,-99.99,,,-99.99,WSDL version 426,2013-12-04 06:14:00,
2013-12-04 00:19:00,45.6,25.6,28.82,SSE,166,2.6,4.9,45,-99.99,,,-99.99,WSDL version 426,2013-12-04 06:19:00,
2013-12-04 00:24:00,45.7,25.3,28.79,SSE,158,1.5,4.7,44,-99.99,,,-99.99,WSDL version 426,2013-12-04 06:24:00,
2013-12-04 00:29:00,45.5,24.8,28.79,SSE,158,0.5,3.1,43,-99.99,,,-99.99,WSDL version 426,2013-12-04 06:29:00,
2013-12-04 00:34:00,45.3,24.1,28.79,East,93,2.1,3.1,43,-99.99,,,-99.99,WSDL version 426,2013-12-04 06:34:00,
2013-12-04 00:39:00,45.1,24.0,28.79,East,100,2.3,3.1,43,-99.99,,,-99.99,WSDL version 426,2013-12-04 06:39:00,
2013-12-04 00:44:00,45.1,24.2,28.79,East,101,2.1,3.6,44,-99.99,,,-99.99,WSDL version 426,2013-12-04 06:44:00,
2013-12-04 00:49:00,45.1,24.5,28.79,ESE,118,3.0,4.0,44,-99.99,,,-99.99,WSDL version 426,2013-12-04 06:49:00,
2013-12-04 00:54:00,45.3,25.0,28.79,SE,135,3.3,4.3,45,-99.99,,,-99.99,WSDL version 426,2013-12-04 06:54:00,
2013-12-04 00:59:00,45.1,24.6,28.79,ESE,113,1.8,4.3,43,-99.99,,,-99.99,WSDL version 426,2013-12-04 06:59:00,
2013-12-04 01:04:00,44.5,23.4,28.79,ESE,113,0.0,4.3,43,-99.99,,,-99.99,WSDL version 426,2013-12-04 07:04:00,
2013-12-04 01:09:00,44.2,23.2,28.79,SSE,158,1.1,3.4,43,-99.99,,,-99.99,WSDL version 426,2013-12-04 07:09:00,
2013-12-04 01:14:00,44.1,23.0,28.79,SSE,155,1.0,3.4,43,-99.99,,,-99.99,WSDL version 426,2013-12-04 07:14:00,
2013-12-04 01:19:00,43.8,22.8,28.79,SE,135,1.7,2.9,43,-99.99,,,-99.99,WSDL version 426,2013-12-04 07:19:00,
2013-12-04 01:24:00,43.7,22.8,28.79,SE,135,1.7,2.9,44,-99.99,,,-99.99,WSDL version 426,2013-12-04 07:24:00,
2013-12-04 01:29:00,43.7,23.2,28.79,SE,135,1.0,2.7,44,-99.99,,,-99.99,WSDL version 426,2013-12-04 07:29:00,
2013-12-04 01:34:00,43.6,23.3,28.79,ENE,68,1.8,2.7,45,-99.99,,,-99.99,WSDL version 426,2013-12-04 07:34:00,
2013-12-04 01:39:00,43.6,23.7,28.76,East,83,2.4,3.4,45,-99.99,,,-99.99,WSDL version 426,2013-12-04 07:39:00,
2013-12-04 01:44:00,43.7,23.9,28.76,East,93,2.5,3.4,46,-99.99,,,-99.99,WSDL version 426,2013-12-04 07:44:00,
2013-12-04 01:49:00,43.9,24.5,28.76,ESE,115,3.1,4.3,46,-99.99,,,-99.99,WSDL version 426,2013-12-04 07:49:00,
2013-12-04 01:54:00,44.2,25.2,28.79,ESE,113,2.8,4.3,47,-99.99,,,-99.99,WSDL version 426,2013-12-04 07:54:00,
2013-12-04 01:59:00,44.5,25.7,28.79,East,93,3.4,4.9,48,-99.99,,,-99.99,WSDL version 426,2013-12-04 07:59:00,
2013-12-04 02:04:00,44.9,26.4,28.79,ESE,113,3.2,4.9,48,-99.99,,,-99.99,WSDL version 426,2013-12-04 08:04:00,
2013-12-04 02:09:00,45.1,26.6,28.79,ESE,120,3.7,5.8,48,-99.99,,,-99.99,WSDL version 426,2013-12-04 08:09:00,
2013-12-04 02:14:00,45.4,26.8,28.79,ESE,118,3.6,6.7,48,-99.99,,,-99.99,WSDL version 426,2013-12-04 08:14:00,
2013-12-04 02:19:00,45.6,27.5,28.79,East,101,3.7,6.7,49,-99.99,,,-99.99,WSDL version 426,2013-12-04 08:19:00,
2013-12-04 02:24:00,45.8,27.7,28.79,ESE,110,3.9,5.8,49,-99.99,,,-99.99,WSDL version 426,2013-12-04 08:24:00,
2013-12-04 02:29:00,45.9,27.8,28.79,ESE,118,3.1,5.4,49,-99.99,,,-99.99,WSDL version 426,2013-12-04 08:29:00,
2013-12-04 02:34:00,45.7,27.2,28.79,ESE,118,3.7,5.4,48,-99.99,,,-99.99,WSDL version 426,2013-12-04 08:34:00,
2013-12-04 02:39:00,45.7,27.2,28.79,SE,124,4.2,6.0,48,-99.99,,,-99.99,WSDL version 426,2013-12-04 08:39:00,
2013-12-04 02:44:00,46.0,27.9,28.79,ESE,110,3.6,6.0,49,-99.99,,,-99.99,WSDL version 426,2013-12-04 08:44:00,
2013-12-04 02:49:00,46.2,28.1,28.79,ESE,113,2.9,5.6,49,-99.99,,,-99.99,WSDL version 426,2013-12-04 08:49:00,
2013-12-04 02:54:00,46.0,28.0,28.79,ESE,122,2.4,3.8,49,-99.99,,,-99.99,WSDL version 426,2013-12-04 08:54:00,
2013-12-04 02:59:00,45.9,27.3,28.79,ESE,116,3.5,5.4,48,-99.99,,,-99.99,WSDL version 426,2013-12-04 08:59:00,
2013-12-04 03:04:00,45.9,27.3,28.79,ESE,113,3.4,5.4,48,-99.99,,,-99.99,WSDL version 426,2013-12-04 09:04:00,
2013-12-04 03:09:00,45.7,27.1,28.79,ESE,113,4.1,5.6,48,-99.99,,,-99.99,WSDL version 426,2013-12-04 09:09:00,
2013-12-04 03:14:00,45.7,27.1,28.79,SE,133,3.2,5.8,48,-99.99,,,-99.99,WSDL version 426,2013-12-04 09:14:00,
2013-12-04 03:19:00,45.7,27.1,28.79,SE,131,3.2,5.8,48,-99.99,,,-99.99,WSDL version 426,2013-12-04 09:19:00,
2013-12-04 03:24:00,45.6,27.0,28.76,ESE,123,3.4,7.2,48,-99.99,,,-99.99,WSDL version 426,2013-12-04 09:24:00,
2013-12-04 03:29:00,45.5,27.0,28.76,SE,129,3.3,7.2,48,-99.99,,,-99.99,WSDL version 426,2013-12-04 09:29:00,
2013-12-04 03:34:00,45.4,26.8,28.76,SE,135,2.7,5.6,48,-99.99,,,-99.99,WSDL version 426,2013-12-04 09:34:00,
2013-12-04 03:39:00,45.3,26.8,28.76,SE,129,3.7,5.8,48,-99.99,,,-99.99,WSDL version 426,2013-12-04 09:39:00,
2013-12-04 03:44:00,45.3,26.8,28.76,SE,140,2.4,5.8,48,-99.99,,,-99.99,WSDL version 426,2013-12-04 09:44:00,
2013-12-04 03:49:00,45.2,26.7,28.76,SE,127,2.7,4.0,48,-99.99,,,-99.99,WSDL version 426,2013-12-04 09:49:00,
2013-12-04 03:54:00,45.1,26.6,28.76,SSE,154,2.5,3.8,48,-99.99,,,-99.99,WSDL version 426,2013-12-04 09:54:00,
2013-12-04 03:59:00,45.0,26.5,28.76,SSE,158,0.2,3.8,48,-99.99,,,-99.99,WSDL version 426,2013-12-04 09:59:00,
2013-12-04 04:04:00,44.8,26.4,28.76,SE,135,1.8,3.1,48,-99.99,,,-99.99,WSDL version 426,2013-12-04 10:04:00,
2013-12-04 04:09:00,44.6,26.1,28.76,SSE,149,1.0,2.7,47,-99.99,,,-99.99,WSDL version 426,2013-12-04 10:09:00,
2013-12-04 04:14:00,44.5,25.9,28.76,ESE,113,2.7,3.1,48,-99.99,,,-99.99,WSDL version 426,2013-12-04 10:14:00,
2013-12-04 04:19:00,44.3,25.8,28.76,SSE,150,1.6,3.1,48,-99.99,,,-99.99,WSDL version 426,2013-12-04 10:19:00,
2013-12-04 04:24:00,44.2,25.8,28.76,SE,143,2.4,4.0,48,-99.99,,,-99.99,WSDL version 426,2013-12-04 10:24:00,
2013-12-04 04:29:00,44.2,25.8,28.76,SSE,166,1.8,4.3,48,-99.99,,,-99.99,WSDL version 426,2013-12-04 10:29:00,
2013-12-04 04:34:00,44.2,26.2,28.76,SE,143,0.3,4.3,49,-99.99,,,-99.99,WSDL version 426,2013-12-04 10:34:00,
2013-12-04 04:39:00,44.2,26.3,28.76,South,191,1.2,3.1,49,-99.99,,,-99.99,WSDL version 426,2013-12-04 10:39:00,
2013-12-04 04:44:00,44.2,26.3,28.76,SSW,203,2.1,2.7,49,-99.99,,,-99.99,WSDL version 426,2013-12-04 10:44:00,
2013-12-04 04:49:00,44.2,26.1,28.76,SSW,203,2.1,3.1,48,-99.99,,,-99.99,WSDL version 426,2013-12-04 10:49:00,
2013-12-04 04:54:00,44.1,26.0,28.76,West,270,3.3,4.3,48,-99.99,,,-99.99,WSDL version 426,2013-12-04 10:54:00,
2013-12-04 04:59:00,44.1,26.0,28.76,WSW,248,2.6,5.4,49,-99.99,,,-99.99,WSDL version 426,2013-12-04 10:59:00,
2013-12-04 05:04:00,44.1,26.0,28.76,WSW,248,2.0,5.4,48,-99.99,,,-99.99,WSDL version 426,2013-12-04 11:04:00,
2013-12-04 05:09:00,44.0,25.8,28.76,SSE,148,1.6,2.9,48,-99.99,,,-99.99,WSDL version 426,2013-12-04 11:09:00,
2013-12-04 05:14:00,44.0,25.9,28.76,SE,129,2.6,4.0,49,-99.99,,,-99.99,WSDL version 426,2013-12-04 11:14:00,
2013-12-04 05:19:00,43.9,25.9,28.76,SSE,150,2.3,4.0,48,-99.99,,,-99.99,WSDL version 426,2013-12-04 11:19:00,
2013-12-04 05:24:00,43.7,25.5,28.79,SSW,196,2.5,3.8,49,-99.99,,,-99.99,WSDL version 426,2013-12-04 11:24:00,
2013-12-04 05:29:00,43.9,26.0,28.79,South,173,2.7,4.3,49,-99.99,,,-99.99,WSDL version 426,2013-12-04 11:29:00,
2013-12-04 05:34:00,44.0,26.2,28.79,SSE,168,3.7,6.0,50,-99.99,,,-99.99,WSDL version 426,2013-12-04 11:34:00,
2013-12-04 05:39:00,44.2,26.8,28.79,SSE,161,3.5,6.0,50,-99.99,,,-99.99,WSDL version 426,2013-12-04 11:39:00,
2013-12-04 05:44:00,44.3,27.1,28.79,South,188,3.2,5.4,51,-99.99,,,-99.99,WSDL version 426,2013-12-04 11:44:00,
2013-12-04 05:49:00,44.4,27.1,28.79,South,169,1.6,5.4,50,-99.99,,,-99.99,WSDL version 426,2013-12-04 11:49:00,
2013-12-04 05:54:00,44.2,26.5,28.82,SSW,203,1.4,3.1,49,-99.99,,,-99.99,WSDL version 426,2013-12-04 11:54:00,
2013-12-04 05:59:00,44.1,26.2,28.82,SSW,200,1.9,2.5,49,-99.99,,,-99.99,WSDL version 426,2013-12-04 11:59:00,
2013-12-04 06:04:00,44.1,26.1,28.82,South,174,3.0,5.8,49,-99.99,,,-99.99,WSDL version 426,2013-12-04 12:04:00,
2013-12-04 06:09:00,44.2,26.5,28.82,SSE,163,3.0,5.8,50,-99.99,,,-99.99,WSDL version 426,2013-12-04 12:09:00,
2013-12-04 06:14:00,44.5,27.0,28.82,South,174,3.6,5.6,50,-99.99,,,-99.99,WSDL version 426,2013-12-04 12:14:00,
2013-12-04 06:19:00,44.5,27.0,28.82,SSE,160,2.4,4.9,50,-99.99,,,-99.99,WSDL version 426,2013-12-04 12:19:00,
2013-12-04 06:24:00,44.4,27.0,28.82,South,177,2.5,3.8,50,-99.99,,,-99.99,WSDL version 426,2013-12-04 12:24:00,
2013-12-04 06:29:00,44.5,26.6,28.82,SE,146,2.7,4.0,49,-99.99,,,-99.99,WSDL version 426,2013-12-04 12:29:00,
2013-12-04 06:34:00,44.6,26.6,28.82,ESE,121,2.8,4.9,49,-99.99,,,-99.99,WSDL version 426,2013-12-04 12:34:00,
2013-12-04 06:39:00,44.6,26.6,28.82,SE,146,2.2,4.9,49,-99.99,,,-99.99,WSDL version 426,2013-12-04 12:39:00,
2013-12-04 06:44:00,44.9,27.0,28.82,SSE,163,2.4,4.0,50,-99.99,,,-99.99,WSDL version 426,2013-12-04 12:44:00,
2013-12-04 06:49:00,45.2,27.7,28.82,SSE,158,3.0,4.0,50,-99.99,,,-99.99,WSDL version 426,2013-12-04 12:49:00,
2013-12-04 06:54:00,45.4,27.9,28.85,South,188,3.2,5.6,50,-99.99,,,-99.99,WSDL version 426,2013-12-04 12:54:00,
2013-12-04 06:59:00,45.5,27.5,28.85,South,177,3.6,6.0,49,-99.99,,,-99.99,WSDL version 426,2013-12-04 12:59:00,
2013-12-04 07:04:00,45.5,27.4,28.85,South,177,3.7,6.5,48,-99.99,,,-99.99,WSDL version 426,2013-12-04 13:04:00,
2013-12-04 07:09:00,45.5,27.0,28.85,South,186,3.9,6.5,48,-99.99,,,-99.99,WSDL version 426,2013-12-04 13:09:00,
2013-12-04 07:14:00,45.5,26.6,28.85,SSW,195,3.4,6.0,47,-99.99,,,-99.99,WSDL version 426,2013-12-04 13:14:00,
2013-12-04 07:19:00,45.8,26.7,28.85,South,185,3.9,6.3,47,-99.99,,,-99.99,WSDL version 426,2013-12-04 13:19:00,
2013-12-04 07:24:00,45.9,26.2,28.85,SSW,200,3.0,6.3,45,-99.99,,,-99.99,WSDL version 426,2013-12-04 13:24:00,
2013-12-04 07:29:00,45.9,25.3,28.85,SSW,213,3.3,5.4,44,-99.99,,,-99.99,WSDL version 426,2013-12-04 13:29:00,
2013-12-04 07:34:00,46.3,24.0,28.85,SW,231,4.6,6.3,40,-99.99,,,-99.99,WSDL version 426,2013-12-04 13:34:00,
2013-12-04 07:39:00,46.7,23.2,28.85,SW,230,4.7,7.4,39,-99.99,,,-99.99,WSDL version 426,2013-12-04 13:39:00,
2013-12-04 07:44:00,47.0,22.7,28.85,SW,235,6.1,8.5,38,-99.99,,,-99.99,WSDL version 426,2013-12-04 13:44:00,
2013-12-04 07:49:00,47.2,22.4,28.85,WSW,256,6.3,8.5,37,-99.99,,,-99.99,WSDL version 426,2013-12-04 13:49:00,
2013-12-04 07:54:00,47.3,22.4,28.85,West,263,7.2,8.9,37,-99.99,,,-99.99,WSDL version 426,2013-12-04 13:54:00,
2013-12-04 07:59:00,47.3,22.4,28.85,West,264,8.2,10.1,37,-99.99,,,-99.99,WSDL version 426,2013-12-04 13:59:00,
2013-12-04 08:04:00,47.3,22.4,28.85,WSW,255,9.1,12.8,37,-99.99,,,-99.99,WSDL version 426,2013-12-04 14:04:00,
2013-12-04 08:09:00,47.3,22.5,28.88,West,273,11.7,13.2,38,-99.99,,,-99.99,WSDL version 426,2013-12-04 14:09:00,
2013-12-04 08:14:00,47.3,23.0,28.88,West,268,9.0,17.4,38,-99.99,,,-99.99,WSDL version 426,2013-12-04 14:14:00,
2013-12-04 08:19:00,47.2,22.9,28.88,West,276,12.8,17.4,38,-99.99,,,-99.99,WSDL version 426,2013-12-04 14:19:00,
2013-12-04 08:24:00,47.0,23.3,28.88,WNW,284,11.6,19.5,39,-99.99,,,-99.99,WSDL version 426,2013-12-04 14:24:00,
2013-12-04 08:29:00,46.8,23.1,28.88,West,265,12.8,19.5,39,-99.99,,,-99.99,WSDL version 426,2013-12-04 14:29:00,
2013-12-04 08:34:00,46.7,23.7,28.88,WNW,286,12.5,17.7,40,-99.99,,,-99.99,WSDL version 426,2013-12-04 14:34:00,
2013-12-04 08:39:00,46.6,23.6,28.88,West,270,9.4,17.7,40,-99.99,,,-99.99,WSDL version 426,2013-12-04 14:39:00,
2013-12-04 08:44:00,46.6,23.6,28.88,West,267,10.4,15.2,40,-99.99,,,-99.99,WSDL version 426,2013-12-04 14:44:00,
2013-12-04 08:49:00,46.6,23.6,28.88,West,264,10.9,15.4,40,-99.99,,,-99.99,WSDL version 426,2013-12-04 14:49:00,
2013-12-04 08:54:00,46.6,23.6,28.91,West,278,9.4,15.4,40,-99.99,,,-99.99,WSDL version 426,2013-12-04 14:54:00,
2013-12-04 08:59:00,46.7,23.6,28.91,West,259,9.2,13.6,40,-99.99,,,-99.99,WSDL version 426,2013-12-04 14:59:00,
2013-12-04 09:04:00,46.5,22.9,28.91,West,270,11.0,15.7,39,-99.99,,,-99.99,WSDL version 426,2013-12-04 15:04:00,
2013-12-04 09:09:00,46.3,22.7,28.91,West,267,10.2,19.7,39,-99.99,,,-99.99,WSDL version 426,2013-12-04 15:09:00,
2013-12-04 09:14:00,46.1,22.5,28.91,West,259,9.8,19.7,39,-99.99,,,-99.99,WSDL version 426,2013-12-04 15:14:00,
2013-12-04 09:19:00,46.0,22.4,28.91,West,267,9.2,12.8,39,-99.99,,,-99.99,WSDL version 426,2013-12-04 15:19:00,
2013-12-04 09:24:00,45.7,22.0,28.94,West,275,12.0,17.2,38,-99.99,,,-99.99,WSDL version 426,2013-12-04 15:24:00,
2013-12-04 09:29:00,45.3,21.2,28.94,West,273,11.1,17.2,38,-99.99,,,-99.99,WSDL version 426,2013-12-04 15:29:00,
2013-12-04 09:34:00,45.0,21.0,28.94,WNW,285,11.4,14.8,38,-99.99,,,-99.99,WSDL version 426,2013-12-04 15:34:00,
2013-12-04 09:39:00,44.7,20.7,28.94,West,267,11.3,14.8,38,-99.99,,,-99.99,WSDL version 426,2013-12-04 15:39:00,
2013-12-04 09:44:00,44.4,20.4,28.94,West,270,10.6,17.4,38,-99.99,,,-99.99,WSDL version 426,2013-12-04 15:44:00,
2013-12-04 09:49:00,44.3,20.6,28.94,WNW,299,11.0,19.7,38,-99.99,,,-99.99,WSDL version 426,2013-12-04 15:49:00,
2013-12-04 09:54:00,44.2,20.2,28.97,West,273,10.3,19.7,38,-99.99,,,-99.99,WSDL version 426,2013-12-04 15:54:00,
2013-12-04 09:59:00,44.2,20.4,28.97,WNW,295,6.4,17.0,39,-99.99,,,-99.99,WSDL version 426,2013-12-04 15:59:00,
2013-12-04 10:04:00,44.1,20.2,28.97,WNW,296,12.0,18.8,38,-99.99,,,-99.99,WSDL version 426,2013-12-04 16:04:00,
2013-12-04 10:09:00,43.9,19.9,28.97,NW,305,8.5,18.8,38,-99.99,,,-99.99,WSDL version 426,2013-12-04 16:09:00,
2013-12-04 10:14:00,43.8,19.8,28.97,WNW,298,9.2,13.0,38,-99.99,,,-99.99,WSDL version 426,2013-12-04 16:14:00,
2013-12-04 10:19:00,43.6,19.7,28.97,WNW,283,10.0,15.2,38,-99.99,,,-99.99,WSDL version 426,2013-12-04 16:19:00,
2013-12-04 10:24:00,43.5,19.6,28.97,WNW,285,7.5,15.2,38,-99.99,,,-99.99,WSDL version 426,2013-12-04 16:24:00,
2013-12-04 10:29:00,43.4,19.5,28.97,WNW,288,10.0,13.2,38,-99.99,,,-99.99,WSDL version 426,2013-12-04 16:29:00,
2013-12-04 10:34:00,43.3,19.4,28.97,WNW,293,8.1,13.2,38,-99.99,,,-99.99,WSDL version 426,2013-12-04 16:34:00,
2013-12-04 10:39:00,43.3,19.4,28.97,West,280,5.8,13.9,38,-99.99,,,-99.99,WSDL version 426,2013-12-04 16:39:00,
2013-12-04 10:44:00,43.2,19.3,28.97,West,276,11.4,17.0,38,-99.99,,,-99.99,WSDL version 426,2013-12-04 16:44:00,
2013-12-04 10:49:00,43.0,19.1,28.97,WSW,256,9.1,17.0,38,-99.99,,,-99.99,WSDL version 426,2013-12-04 16:49:00,
2013-12-04 10:54:00,42.7,18.4,28.97,West,276,9.9,13.2,37,-99.99,,,-99.99,WSDL version 426,2013-12-04 16:54:00,
2013-12-04 10:59:00,42.6,18.8,28.97,West,281,10.2,13.0,38,-99.99,,,-99.99,WSDL version 426,2013-12-04 16:59:00,
2013-12-04 11:04:00,42.6,18.2,28.97,WNW,290,10.1,13.0,37,-99.99,,,-99.99,WSDL version 426,2013-12-04 17:04:00,
2013-12-04 11:09:00,42.7,17.6,29.00,West,273,8.4,13.0,35,-99.99,,,-99.99,WSDL version 426,2013-12-04 17:09:00,
2013-12-04 11:14:00,42.7,16.2,29.00,WNW,286,9.0,13.9,34,-99.99,,,-99.99,WSDL version 426,2013-12-04 17:14:00,
2013-12-04 11:19:00,42.4,15.8,29.00,WNW,289,11.6,15.9,33,-99.99,,,-99.99,WSDL version 426,2013-12-04 17:19:00,
2013-12-04 11:24:00,42.5,14.6,29.00,West,259,13.3,16.6,31,-99.99,,,-99.99,WSDL version 426,2013-12-04 17:24:00,
2013-12-04 11:29:00,42.4,14.1,29.00,WNW,296,12.6,16.6,31,-99.99,,,-99.99,WSDL version 426,2013-12-04 17:29:00,
2013-12-04 11:34:00,42.5,13.6,29.00,WNW,290,12.7,15.4,30,-99.99,,,-99.99,WSDL version 426,2013-12-04 17:34:00,
2013-12-04 11:39:00,42.7,13.4,29.00,WNW,299,11.5,17.0,30,-99.99,,,-99.99,WSDL version 426,2013-12-04 17:39:00,
2013-12-04 11:44:00,42.9,13.5,29.00,WNW,295,10.8,17.0,30,-99.99,,,-99.99,WSDL version 426,2013-12-04 17:44:00,
2013-12-04 11:49:00,43.0,13.4,29.00,NW,305,8.9,15.4,29,-99.99,,,-99.99,WSDL version 426,2013-12-04 17:49:00,
2013-12-04 11:54:00,43.0,13.2,29.00,WNW,283,8.7,12.8,29,-99.99,,,-99.99,WSDL version 426,2013-12-04 17:54:00,
2013-12-04 11:59:00,42.8,13.2,29.00,West,280,10.2,13.2,30,-99.99,,,-99.99,WSDL version 426,2013-12-04 17:59:00,
2013-12-04 12:04:00,42.6,12.8,29.00,West,273,9.6,13.2,30,-99.99,,,-99.99,WSDL version 426,2013-12-04 18:04:00,
2013-12-04 12:09:00,42.3,12.7,29.00,West,273,9.9,13.0,30,-99.99,,,-99.99,WSDL version 426,2013-12-04 18:09:00,
2013-12-04 12:14:00,42.3,12.5,29.00,WNW,287,9.8,13.9,29,-99.99,,,-99.99,WSDL version 426,2013-12-04 18:14:00,
2013-12-04 12:19:00,42.4,12.3,29.00,WNW,298,9.8,13.9,29,-99.99,,,-99.99,WSDL version 426,2013-12-04 18:19:00,
2013-12-04 12:24:00,42.4,12.4,29.00,NW,318,8.3,13.4,29,-99.99,,,-99.99,WSDL version 426,2013-12-04 18:24:00,
2013-12-04 12:29:00,42.7,12.2,29.00,WNW,290,8.8,12.3,28,-99.99,,,-99.99,WSDL version 426,2013-12-04 18:29:00,
2013-12-04 12:34:00,43.2,12.3,29.00,West,278,9.0,12.5,28,-99.99,,,-99.99,WSDL version 426,2013-12-04 18:34:00,
2013-12-04 12:39:00,43.4,12.4,29.00,WNW,290,8.2,12.5,28,-99.99,,,-99.99,WSDL version 426,2013-12-04 18:39:00,
2013-12-04 12:44:00,43.3,12.4,29.00,WNW,293,8.4,12.1,28,-99.99,,,-99.99,WSDL version 426,2013-12-04 18:44:00,
2013-12-04 12:49:00,43.5,12.6,29.00,WNW,287,8.1,12.1,28,-99.99,,,-99.99,WSDL version 426,2013-12-04 18:49:00,
2013-12-04 12:54:00,43.9,12.9,29.00,WNW,283,8.2,11.2,28,-99.99,,,-99.99,WSDL version 426,2013-12-04 18:54:00,
2013-12-04 12:59:00,43.9,10.9,29.00,West,273,7.5,11.0,25,-99.99,,,-99.99,WSDL version 426,2013-12-04 18:59:00,
2013-12-04 13:04:00,44.4,11.6,29.00,WNW,303,7.4,10.3,25,-99.99,,,-99.99,WSDL version 426,2013-12-04 19:04:00,
2013-12-04 13:09:00,44.9,11.2,29.00,WNW,283,6.2,9.8,25,-99.99,,,-99.99,WSDL version 426,2013-12-04 19:09:00,
2013-12-04 13:14:00,45.4,9.3,29.00,West,266,8.4,12.8,22,-99.99,,,-99.99,WSDL version 426,2013-12-04 19:14:00,
2013-12-04 13:19:00,45.0,8.4,29.00,NW,308,9.4,14.1,22,-99.99,,,-99.99,WSDL version 426,2013-12-04 19:19:00,
2013-12-04 13:24:00,44.7,8.1,29.00,WNW,301,9.2,14.1,22,-99.99,,,-99.99,WSDL version 426,2013-12-04 19:24:00,
2013-12-04 13:29:00,44.5,8.8,29.00,NW,318,9.9,13.0,23,-99.99,,,-99.99,WSDL version 426,2013-12-04 19:29:00,
2013-12-04 13:34:00,44.4,8.9,29.00,WNW,293,9.9,13.2,23,-99.99,,,-99.99,WSDL version 426,2013-12-04 19:34:00,
2013-12-04 13:39:00,44.3,8.3,29.00,WNW,285,8.1,13.2,23,-99.99,,,-99.99,WSDL version 426,2013-12-04 19:39:00,
2013-12-04 13:44:00,44.2,7.5,29.00,WNW,290,9.7,13.4,23,-99.99,,,-99.99,WSDL version 426,2013-12-04 19:44:00,
2013-12-04 13:49:00,44.2,6.6,29.00,West,281,11.7,13.9,20,-99.99,,,-99.99,WSDL version 426,2013-12-04 19:49:00,
2013-12-04 13:54:00,44.2,6.9,29.03,NW,320,8.3,13.9,20,-99.99,,,-99.99,WSDL version 426,2013-12-04 19:54:00,
2013-12-04 13:59:00,44.2,6.2,29.03,West,278,8.5,15.2,20,-99.99,,,-99.99,WSDL version 426,2013-12-04 19:59:00,
2013-12-04 14:04:00,43.8,5.3,29.03,WNW,301,10.8,15.2,20,-99.99,,,-99.99,WSDL version 426,2013-12-04 20:04:00,
2013-12-04 14:09:00,43.7,5.2,29.03,NW,312,12.2,14.8,20,-99.99,,,-99.99,WSDL version 426,2013-12-04 20:09:00,
2013-12-04 14:14:00,43.9,5.4,29.03,WNW,293,10.3,14.8,20,-99.99,,,-99.99,WSDL version 426,2013-12-04 20:14:00,
2013-12-04 14:19:00,44.5,5.9,29.03,WNW,303,10.8,16.1,20,-99.99,,,-99.99,WSDL version 426,2013-12-04 20:19:00,
2013-12-04 14:24:00,44.2,3.8,29.03,WNW,299,11.2,17.7,18,-99.99,,,-99.99,WSDL version 426,2013-12-04 20:24:00,
2013-12-04 14:29:00,44.1,4.8,29.03,NW,315,8.8,17.7,20,-99.99,,,-99.99,WSDL version 426,2013-12-04 20:29:00,
2013-12-04 14:34:00,44.4,3.3,29.03,NW,323,10.1,14.8,18,-99.99,,,-99.99,WSDL version 426,2013-12-04 20:34:00,
2013-12-04 14:39:00,44.4,3.5,29.03,NW,305,9.0,13.2,18,-99.99,,,-99.99,WSDL version 426,2013-12-04 20:39:00,
2013-12-04 14:44:00,44.0,3.2,29.03,NW,315,8.6,13.2,18,-99.99,,,-99.99,WSDL version 426,2013-12-04 20:44:00,
2013-12-04 14:49:00,44.1,3.2,29.03,WNW,300,9.4,13.2,18,-99.99,,,-99.99,WSDL version 426,2013-12-04 20:49:00,
2013-12-04 14:54:00,43.9,3.1,29.00,WNW,303,10.8,15.7,18,-99.99,,,-99.99,WSDL version 426,2013-12-04 20:54:00,
2013-12-04 14:59:00,43.5,2.8,29.00,WNW,286,8.9,15.7,18,-99.99,,,-99.99,WSDL version 426,2013-12-04 20:59:00,
2013-12-04 15:04:00,43.3,2.6,29.00,WNW,298,9.8,15.2,18,-99.99,,,-99.99,WSDL version 426,2013-12-04 21:04:00,
2013-12-04 15:09:00,43.0,2.4,29.03,NW,320,10.1,15.2,18,-99.99,,,-99.99,WSDL version 426,2013-12-04 21:09:00,
2013-12-04 15:14:00,42.6,3.2,29.03,NW,304,11.9,17.2,18,-99.99,,,-99.99,WSDL version 426,2013-12-04 21:14:00,
2013-12-04 15:19:00,42.5,4.7,29.03,WNW,284,9.0,17.2,21,-99.99,,,-99.99,WSDL version 426,2013-12-04 21:19:00,
2013-12-04 15:24:00,42.5,5.3,29.03,NNW,338,8.3,13.9,21,-99.99,,,-99.99,WSDL version 426,2013-12-04 21:24:00,
2013-12-04 15:29:00,42.5,5.3,29.03,NW,315,10.1,13.2,21,-99.99,,,-99.99,WSDL version 426,2013-12-04 21:29:00,
2013-12-04 15:34:00,42.2,5.0,29.03,NNW,332,10.1,13.2,21,-99.99,,,-99.99,WSDL version 426,2013-12-04 21:34:00,
2013-12-04 15:39:00,42.1,4.9,29.03,NW,323,9.5,13.2,21,-99.99,,,-99.99,WSDL version 426,2013-12-04 21:39:00,
2013-12-04 15:44:00,41.9,4.8,29.03,NW,315,9.1,14.3,21,-99.99,,,-99.99,WSDL version 426,2013-12-04 21:44:00,
2013-12-04 15:49:00,41.6,4.5,29.03,NW,326,10.6,14.8,21,-99.99,,,-99.99,WSDL version 426,2013-12-04 21:49:00,
2013-12-04 15:54:00,41.5,4.5,29.03,NW,305,9.9,14.8,21,-99.99,,,-99.99,WSDL version 426,2013-12-04 21:54:00,
2013-12-04 15:59:00,41.5,4.5,29.03,NW,308,9.2,13.0,21,-99.99,,,-99.99,WSDL version 426,2013-12-04 21:59:00,
2013-12-04 16:04:00,41.5,4.4,29.03,NW,305,7.0,13.0,21,-99.99,,,-99.99,WSDL version 426,2013-12-04 22:04:00,
2013-12-04 16:09:00,41.7,4.6,29.06,WNW,284,7.6,12.1,21,-99.99,,,-99.99,WSDL version 426,2013-12-04 22:09:00,
2013-12-04 16:14:00,41.7,4.6,29.06,NW,325,6.3,12.1,21,-99.99,,,-99.99,WSDL version 426,2013-12-04 22:14:00,
2013-12-04 16:19:00,41.5,4.5,29.06,NNW,329,9.8,12.8,21,-99.99,,,-99.99,WSDL version 426,2013-12-04 22:19:00,
2013-12-04 16:24:00,41.3,4.3,29.06,WNW,301,9.3,12.8,21,-99.99,,,-99.99,WSDL version 426,2013-12-04 22:24:00,
2013-12-04 16:29:00,41.1,4.1,29.06,NW,315,6.8,11.0,21,-99.99,,,-99.99,WSDL version 426,2013-12-04 22:29:00,
2013-12-04 16:34:00,40.8,1.1,29.06,WNW,298,12.7,17.0,18,-99.99,,,-99.99,WSDL version 426,2013-12-04 22:34:00,
2013-12-04 16:39:00,40.5,0.3,29.09,WNW,300,10.4,17.0,18,-99.99,,,-99.99,WSDL version 426,2013-12-04 22:39:00,
2013-12-04 16:44:00,40.4,0.2,29.09,WNW,300,10.3,14.8,18,-99.99,,,-99.99,WSDL version 426,2013-12-04 22:44:00,
2013-12-04 16:49:00,40.3,1.8,29.09,NW,310,8.9,15.4,21,-99.99,,,-99.99,WSDL version 426,2013-12-04 22:49:00,
2013-12-04 16:54:00,40.3,3.4,29.09,NW,325,7.3,15.4,21,-99.99,,,-99.99,WSDL version 426,2013-12-04 22:54:00,
2013-12-04 16:59:00,40.2,3.4,29.09,WNW,301,9.0,12.1,21,-99.99,,,-99.99,WSDL version 426,2013-12-04 22:59:00,
2013-12-04 17:04:00,40.3,3.4,29.09,NW,309,6.0,12.1,21,-99.99,,,-99.99,WSDL version 426,2013-12-04 23:04:00,
2013-12-04 17:09:00,40.1,1.3,29.12,WNW,301,9.5,12.5,18,-99.99,,,-99.99,WSDL version 426,2013-12-04 23:09:00,
2013-12-04 17:14:00,40.0,-0.2,29.12,NNW,328,6.5,12.5,18,-99.99,,,-99.99,WSDL version 426,2013-12-04 23:14:00,
2013-12-04 17:19:00,39.9,-0.2,29.12,NW,320,6.1,12.3,18,-99.99,,,-99.99,WSDL version 426,2013-12-04 23:19:00,
2013-12-04 17:24:00,39.7,1.0,29.09,NW,315,7.8,11.2,18,-99.99,,,-99.99,WSDL version 426,2013-12-04 23:24:00,
2013-12-04 17:29:00,39.6,-0.4,29.09,WNW,295,6.8,12.3,18,-99.99,,,-99.99,WSDL version 426,2013-12-04 23:29:00,
2013-12-04 17:34:00,39.4,-0.6,29.09,NW,325,9.4,13.0,18,-99.99,,,-99.99,WSDL version 426,2013-12-04 23:34:00,
2013-12-04 17:39:00,39.3,-0.7,29.12,NW,309,8.6,14.8,18,-99.99,,,-99.99,WSDL version 426,2013-12-04 23:39:00,
2013-12-04 17:44:00,39.2,-0.6,29.12,NNW,331,7.1,14.8,19,-99.99,,,-99.99,WSDL version 426,2013-12-04 23:44:00,
2013-12-04 17:49:00,38.9,0.2,29.12,WNW,296,8.2,12.8,19,-99.99,,,-99.99,WSDL version 426,2013-12-04 23:49:00,
2013-12-04 17:54:00,38.8,0.1,29.12,NNW,328,8.0,12.8,19,-99.99,,,-99.99,WSDL version 426,2013-12-04 23:54:00,
2013-12-04 17:59:00,38.7,-0.1,29.12,NW,325,8.6,13.0,19,-99.99,,,-99.99,WSDL version 426,2013-12-04 23:59:00,
2013-12-04 18:04:00,38.7,-0.1,29.12,NNW,329,6.4,13.0,19,-99.99,,,-99.99,WSDL version 426,2013-12-05 00:04:00,
2013-12-04 18:09:00,38.7,-0.1,29.12,NW,321,8.1,10.7,19,-99.99,,,-99.99,WSDL version 426,2013-12-05 00:09:00,
2013-12-04 18:14:00,38.7,-0.1,29.12,NW,319,6.5,10.7,19,-99.99,,,-99.99,WSDL version 426,2013-12-05 00:14:00,
2013-12-04 18:19:00,38.7,-0.1,29.12,NNW,334,5.8,8.5,19,-99.99,,,-99.99,WSDL version 426,2013-12-05 00:19:00,
2013-12-04 18:24:00,38.5,-0.2,29.15,NNW,328,6.5,10.1,19,-99.99,,,-99.99,WSDL version 426,2013-12-05 00:24:00,
2013-12-04 18:29:00,38.3,-0.4,29.15,NW,323,7.0,10.1,19,-99.99,,,-99.99,WSDL version 426,2013-12-05 00:29:00,
2013-12-04 18:34:00,38.1,-0.5,29.15,NW,309,8.9,11.2,19,-99.99,,,-99.99,WSDL version 426,2013-12-05 00:34:00,
2013-12-04 18:39:00,38.0,-0.6,29.15,NW,312,9.5,14.1,19,-99.99,,,-99.99,WSDL version 426,2013-12-05 00:39:00,
2013-12-04 18:44:00,37.8,-0.8,29.15,NW,321,9.6,14.3,19,-99.99,,,-99.99,WSDL version 426,2013-12-05 00:44:00,
2013-12-04 18:49:00,37.6,-1.0,29.15,NW,326,8.2,14.3,19,-99.99,,,-99.99,WSDL version 426,2013-12-05 00:49:00,
2013-12-04 18:54:00,37.4,-1.1,29.15,NW,321,8.6,16.8,19,-99.99,,,-99.99,WSDL version 426,2013-12-05 00:54:00,
2013-12-04 18:59:00,37.3,-1.2,29.15,NW,309,8.7,16.8,19,-99.99,,,-99.99,WSDL version 426,2013-12-05 00:59:00,
2013-12-04 19:04:00,37.1,-1.4,29.15,NW,323,10.5,13.2,19,-99.99,,,-99.99,WSDL version 426,2013-12-05 01:04:00,
2013-12-04 19:09:00,36.9,-1.6,29.18,NW,320,10.3,13.6,19,-99.99,,,-99.99,WSDL version 426,2013-12-05 01:09:00,
2013-12-04 19:14:00,36.6,-1.8,29.18,NW,323,9.5,13.6,19,-99.99,,,-99.99,WSDL version 426,2013-12-05 01:14:00,
2013-12-04 19:19:00,36.4,-1.9,29.18,NW,318,6.8,13.6,19,-99.99,,,-99.99,WSDL version 426,2013-12-05 01:19:00,
2013-12-04 19:24:00,36.3,-2.1,29.18,NW,312,10.7,13.2,19,-99.99,,,-99.99,WSDL version 426,2013-12-05 01:24:00,
2013-12-04 19:29:00,36.1,-2.2,29.18,NNW,340,8.3,13.2,19,-99.99,,,-99.99,WSDL version 426,2013-12-05 01:29:00,
2013-12-04 19:34:00,36.1,-2.2,29.18,NNW,340,9.2,12.8,19,-99.99,,,-99.99,WSDL version 426,2013-12-05 01:34:00,
2013-12-04 19:39:00,35.9,-2.4,29.18,NNW,344,11.2,16.8,19,-99.99,,,-99.99,WSDL version 426,2013-12-05 01:39:00,
2013-12-04 19:44:00,35.6,-2.6,29.18,NNW,334,10.0,16.8,19,-99.99,,,-99.99,WSDL version 426,2013-12-05 01:44:00,
2013-12-04 19:49:00,35.4,-1.7,29.18,NNW,340,9.0,14.5,20,-99.99,,,-99.99,WSDL version 426,2013-12-05 01:49:00,
2013-12-04 19:54:00,35.2,-1.9,29.18,NW,311,10.7,15.4,20,-99.99,,,-99.99,WSDL version 426,2013-12-05 01:54:00,
2013-12-04 19:59:00,35.0,-2.0,29.18,NW,312,9.5,15.4,20,-99.99,,,-99.99,WSDL version 426,2013-12-05 01:59:00,
2013-12-04 20:04:00,34.9,-2.2,29.18,NW,323,9.2,17.0,20,-99.99,,,-99.99,WSDL version 426,2013-12-05 02:04:00,
2013-12-04 20:09:00,34.6,-2.4,29.18,NNW,338,9.7,17.0,20,-99.99,,,-99.99,WSDL version 426,2013-12-05 02:09:00,
2013-12-04 20:14:00,34.5,-2.5,29.18,North,-999,-999.0,-999.0,20,-99.99,,,-99.99,WSDL version 426,2013-12-05 02:14:00,
2013-12-04 20:19:00,34.3,-2.6,29.18,North,-999,-999.0,-999.0,20,-99.99,,,-99.99,WSDL version 426,2013-12-05 02:19:00,
2013-12-04 20:24:00,34.3,-2.6,29.18,NW,315,7.4,7.8,20,-99.99,,,-99.99,WSDL version 426,2013-12-05 02:24:00,
2013-12-04 20:29:00,34.3,-2.6,29.18,NNW,338,6.3,9.2,20,-99.99,,,-99.99,WSDL version 426,2013-12-05 02:29:00,
2013-12-04 20:34:00,34.3,-2.6,29.18,NNW,330,9.5,11.0,20,-99.99,,,-99.99,WSDL version 426,2013-12-05 02:34:00,
2013-12-04 20:39:00,34.2,-2.8,29.18,North,-999,-999.0,-999.0,20,-99.99,,,-99.99,WSDL version 426,2013-12-05 02:39:00,
2013-12-04 20:44:00,34.1,-2.8,29.18,North,-999,-999.0,-999.0,20,-99.99,,,-99.99,WSDL version 426,2013-12-05 02:44:00,
2013-12-04 20:49:00,34.0,-2.9,29.18,North,0,0.0,8.1,20,-99.99,,,-99.99,WSDL version 426,2013-12-05 02:49:00,
2013-12-04 20:54:00,34.0,-2.9,29.18,North,-999,-999.0,-999.0,20,-99.99,,,-99.99,WSDL version 426,2013-12-05 02:54:00,
2013-12-04 20:59:00,34.0,-2.9,29.18,NNW,338,7.2,10.1,20,-99.99,,,-99.99,WSDL version 426,2013-12-05 02:59:00,
2013-12-04 21:04:00,34.0,-2.9,29.18,NNW,330,8.9,11.0,20,-99.99,,,-99.99,WSDL version 426,2013-12-05 03:04:00,
2013-12-04 21:09:00,34.0,-2.9,29.21,NW,315,7.3,11.0,20,-99.99,,,-99.99,WSDL version 426,2013-12-05 03:09:00,
2013-12-04 21:14:00,34.0,-2.9,29.21,NW,326,8.9,11.9,20,-99.99,,,-99.99,WSDL version 426,2013-12-05 03:14:00,
2013-12-04 21:19:00,33.8,-3.1,29.21,NNW,338,7.6,12.3,20,-99.99,,,-99.99,WSDL version 426,2013-12-05 03:19:00,
2013-12-04 21:24:00,33.8,-3.1,29.21,NW,315,8.6,12.3,20,-99.99,,,-99.99,WSDL version 426,2013-12-05 03:24:00,
2013-12-04 21:29:00,33.6,-3.2,29.21,NW,326,9.0,13.9,20,-99.99,,,-99.99,WSDL version 426,2013-12-05 03:29:00,
2013-12-04 21:34:00,33.5,-3.3,29.21,NNW,332,8.2,13.9,20,-99.99,,,-99.99,WSDL version 426,2013-12-05 03:34:00,
2013-12-04 21:39:00,33.4,-3.4,29.23,NW,308,8.0,12.5,20,-99.99,,,-99.99,WSDL version 426,2013-12-05 03:39:00,
2013-12-04 21:44:00,33.3,-3.5,29.23,NNW,338,7.8,13.4,20,-99.99,,,-99.99,WSDL version 426,2013-12-05 03:44:00,
2013-12-04 21:49:00,33.1,-3.6,29.23,NW,326,9.6,13.4,20,-99.99,,,-99.99,WSDL version 426,2013-12-05 03:49:00,
2013-12-04 21:54:00,33.0,-3.7,29.23,NNW,338,8.0,13.0,20,-99.99,,,-99.99,WSDL version 426,2013-12-05 03:54:00,
2013-12-04 21:59:00,32.8,-3.9,29.23,NW,326,9.5,13.6,20,-99.99,,,-99.99,WSDL version 426,2013-12-05 03:59:00,
2013-12-04 22:04:00,32.5,-4.1,29.23,NNW,345,9.2,13.6,20,-99.99,,,-99.99,WSDL version 426,2013-12-05 04:04:00,
2013-12-04 22:09:00,32.2,-5.5,29.23,North,360,10.2,13.6,18,-99.99,,,-99.99,WSDL version 426,2013-12-05 04:09:00,
2013-12-04 22:14:00,32.0,-3.5,29.23,NW,326,10.2,13.6,18,-99.99,,,-99.99,WSDL version 426,2013-12-05 04:14:00,
2013-12-04 22:19:00,31.7,-3.0,29.23,NNW,330,11.1,12.8,18,-99.99,,,-99.99,WSDL version 426,2013-12-05 04:19:00,
2013-12-04 22:24:00,31.6,-3.2,29.26,NW,326,9.0,12.8,18,-99.99,,,-99.99,WSDL version 426,2013-12-05 04:24:00,
2013-12-04 22:29:00,31.5,-3.3,29.26,NNW,333,11.4,15.9,18,-99.99,,,-99.99,WSDL version 426,2013-12-05 04:29:00,
2013-12-04 22:34:00,31.3,-3.4,29.26,NNW,328,9.5,15.9,18,-99.99,,,-99.99,WSDL version 426,2013-12-05 04:34:00,
2013-12-04 22:39:00,31.2,-3.5,29.26,NW,315,11.2,12.8,18,-99.99,,,-99.99,WSDL version 426,2013-12-05 04:39:00,
2013-12-04 22:44:00,31.1,-3.6,29.26,NNW,332,10.5,13.2,18,-99.99,,,-99.99,WSDL version 426,2013-12-05 04:44:00,
2013-12-04 22:49:00,31.1,-3.6,29.26,NNW,338,11.9,16.8,18,-99.99,,,-99.99,WSDL version 426,2013-12-05 04:49:00,
2013-12-04 22:54:00,30.9,-3.8,29.26,NNW,338,11.2,16.8,18,-99.99,,,-99.99,WSDL version 426,2013-12-05 04:54:00,
2013-12-04 22:59:00,30.9,-3.8,29.26,NNW,342,9.3,14.5,18,-99.99,,,-99.99,WSDL version 426,2013-12-05 04:59:00,
2013-12-04 23:01:00,30.9,-3.8,29.26,NNW,341,9.2,14.5,18,-99.99,,,-99.99,WSDL version 426,2013-12-05 05:01:00,
2013-12-04 23:02:00,30.9,-3.8,29.26,NNW,334,9.3,13.0,18,-99.99,,,-99.99,WSDL version 426,2013-12-05 05:02:00,
2013-12-04 23:04:00,30.9,-3.1,29.26,NNW,343,9.5,13.0,20,-99.99,,,-99.99,WSDL version 426,2013-12-05 05:04:00,
2013-12-04 23:05:00,30.9,-2.6,29.26,NNW,343,9.7,13.0,20,-99.99,,,-99.99,WSDL version 426,2013-12-05 05:05:00,
2013-12-04 23:09:00,30.9,-2.1,29.23,NNW,333,7.9,13.0,20,-99.99,,,-99.99,WSDL version 426,2013-12-05 05:09:00,
2013-12-04 23:10:00,30.9,-2.1,29.23,NNW,330,7.5,12.5,20,-99.99,,,-99.99,WSDL version 426,2013-12-05 05:10:00,
2013-12-04 23:15:00,30.9,-2.8,29.23,NNW,341,12.6,17.7,18,-99.99,,,-99.99,WSDL version 426,2013-12-05 05:15:00,
2013-12-04 23:20:00,30.7,-3.9,29.23,NNW,338,11.7,18.8,18,-99.99,,,-99.99,WSDL version 426,2013-12-05 05:20:00,
2013-12-04 23:26:00,30.7,-3.9,29.23,NNW,334,12.4,18.8,18,-99.99,,,-99.99,WSDL version 426,2013-12-05 05:26:00,
2013-12-04 23:31:00,30.7,-3.9,29.23,NNW,329,11.3,18.8,18,-99.99,,,-99.99,WSDL version 426,2013-12-05 05:31:00,
2013-12-04 23:36:00,30.8,-3.9,29.23,NNW,347,11.0,17.0,18,-99.99,,,-99.99,WSDL version 426,2013-12-05 05:36:00,
2013-12-04 23:41:00,30.9,-3.8,29.23,NNW,338,10.8,17.0,18,-99.99,,,-99.99,WSDL version 426,2013-12-05 05:41:00,
2013-12-04 23:46:00,30.9,-3.8,29.23,NNW,338,14.1,19.5,18,-99.99,,,-99.99,WSDL version 426,2013-12-05 05:46:00,
2013-12-04 23:51:00,30.9,-3.8,29.23,NNW,338,11.5,19.5,18,-99.99,,,-99.99,WSDL version 426,2013-12-05 05:51:00,
2013-12-04 23:56:00,31.0,-3.7,29.26,NNW,331,9.7,18.6,18,-99.99,,,-99.99,WSDL version 426,2013-12-05 05:56:00,